sensor_id;sensor_type;location;lat;lon;timestamp;pressure;altitude;pressure_sealevel;temperature;humidity
21988;BME280;11158;53.404;-1.510;2023-07-31T00:00:05;99306.88;;;20.97;61.52
21988;BME280;11158;53.404;-1.510;2023-07-31T00:02:51;99297.50;;;21.18;60.61
21988;BME280;11158;53.404;-1.510;2023-07-31T00:05:36;99287.94;;;20.76;61.60
21988;BME280;11158;53.404;-1.510;2023-07-31T00:08:20;99286.97;;;20.41;62.96
21988;BME280;11158;53.404;-1.510;2023-07-31T00:11:04;99288.94;;;20.10;63.95
21988;BME280;11158;53.404;-1.510;2023-07-31T00:13:48;99291.28;;;20.47;62.70
21988;BME280;11158;53.404;-1.510;2023-07-31T00:16:32;99289.16;;;20.29;63.43
21988;BME280;11158;53.404;-1.510;2023-07-31T00:19:17;99284.44;;;20.76;62.23
21988;BME280;11158;53.404;-1.510;2023-07-31T00:22:01;99278.44;;;20.79;62.27
21988;BME280;11158;53.404;-1.510;2023-07-31T00:24:45;99272.78;;;20.65;62.84
21988;BME280;11158;53.404;-1.510;2023-07-31T00:27:29;99263.66;;;21.00;62.11
21988;BME280;11158;53.404;-1.510;2023-07-31T00:30:13;99263.78;;;20.75;62.81
21988;BME280;11158;53.404;-1.510;2023-07-31T00:32:57;99260.91;;;20.40;63.65
21988;BME280;11158;53.404;-1.510;2023-07-31T00:35:42;99248.63;;;20.68;62.86
21988;BME280;11158;53.404;-1.510;2023-07-31T00:38:26;99257.22;;;20.86;62.11
21988;BME280;11158;53.404;-1.510;2023-07-31T00:41:10;99256.41;;;20.85;62.43
21988;BME280;11158;53.404;-1.510;2023-07-31T00:43:54;99259.50;;;20.68;62.88
21988;BME280;11158;53.404;-1.510;2023-07-31T00:46:38;99256.50;;;21.15;61.28
21988;BME280;11158;53.404;-1.510;2023-07-31T00:49:22;99254.03;;;20.74;62.55
21988;BME280;11158;53.404;-1.510;2023-07-31T00:52:07;99251.25;;;20.84;62.03
21988;BME280;11158;53.404;-1.510;2023-07-31T00:54:51;99255.44;;;21.10;61.53
21988;BME280;11158;53.404;-1.510;2023-07-31T00:57:38;99249.22;;;21.05;61.95
21988;BME280;11158;53.404;-1.510;2023-07-31T01:00:24;99251.88;;;21.15;61.80
21988;BME280;11158;53.404;-1.510;2023-07-31T01:03:08;99246.84;;;20.93;62.34
21988;BME280;11158;53.404;-1.510;2023-07-31T01:11:43;99238.03;;;21.11;62.17
21988;BME280;11158;53.404;-1.510;2023-07-31T01:14:30;99244.25;;;20.78;62.69
21988;BME280;11158;53.404;-1.510;2023-07-31T01:17:14;99232.91;;;21.05;62.67
21988;BME280;11158;53.404;-1.510;2023-07-31T01:20:02;99223.47;;;21.37;61.33
21988;BME280;11158;53.404;-1.510;2023-07-31T01:24:01;99221.97;;;20.76;63.19
21988;BME280;11158;53.404;-1.510;2023-07-31T01:26:28;99216.63;;;20.60;63.96
21988;BME280;11158;53.404;-1.510;2023-07-31T01:29:29;99207.13;;;21.02;62.61
21988;BME280;11158;53.404;-1.510;2023-07-31T01:32:17;99202.66;;;20.17;64.85
21988;BME280;11158;53.404;-1.510;2023-07-31T01:35:02;99209.38;;;20.35;64.82
21988;BME280;11158;53.404;-1.510;2023-07-31T01:37:46;99203.88;;;20.45;64.56
21988;BME280;11158;53.404;-1.510;2023-07-31T01:40:34;99196.41;;;20.17;65.74
21988;BME280;11158;53.404;-1.510;2023-07-31T01:43:19;99194.00;;;20.10;65.88
21988;BME280;11158;53.404;-1.510;2023-07-31T01:46:03;99196.72;;;20.10;66.07
21988;BME280;11158;53.404;-1.510;2023-07-31T01:48:46;99185.31;;;20.08;66.05
21988;BME280;11158;53.404;-1.510;2023-07-31T01:51:31;99184.22;;;20.14;65.91
21988;BME280;11158;53.404;-1.510;2023-07-31T01:54:20;99180.16;;;20.06;66.34
21988;BME280;11158;53.404;-1.510;2023-07-31T01:57:05;99172.94;;;19.81;67.22
21988;BME280;11158;53.404;-1.510;2023-07-31T01:59:49;99178.59;;;19.95;66.84
21988;BME280;11158;53.404;-1.510;2023-07-31T02:02:33;99175.34;;;19.93;66.79
21988;BME280;11158;53.404;-1.510;2023-07-31T02:05:18;99180.53;;;19.79;67.66
21988;BME280;11158;53.404;-1.510;2023-07-31T02:08:02;99178.38;;;19.81;67.52
21988;BME280;11158;53.404;-1.510;2023-07-31T02:10:47;99173.19;;;19.64;68.24
21988;BME280;11158;53.404;-1.510;2023-07-31T02:13:30;99177.81;;;19.84;67.58
21988;BME280;11158;53.404;-1.510;2023-07-31T02:16:15;99176.19;;;19.78;68.07
21988;BME280;11158;53.404;-1.510;2023-07-31T02:18:58;99171.31;;;19.80;67.65
21988;BME280;11158;53.404;-1.510;2023-07-31T02:21:43;99166.69;;;19.81;68.15
21988;BME280;11158;53.404;-1.510;2023-07-31T02:24:27;99159.91;;;19.78;68.04
21988;BME280;11158;53.404;-1.510;2023-07-31T02:27:11;99162.56;;;19.99;67.66
21988;BME280;11158;53.404;-1.510;2023-07-31T02:29:55;99151.31;;;20.31;66.35
21988;BME280;11158;53.404;-1.510;2023-07-31T02:32:39;99152.03;;;20.52;65.61
21988;BME280;11158;53.404;-1.510;2023-07-31T02:35:23;99152.38;;;20.35;65.85
21988;BME280;11158;53.404;-1.510;2023-07-31T02:38:07;99149.59;;;20.45;65.43
21988;BME280;11158;53.404;-1.510;2023-07-31T02:40:51;99140.63;;;20.50;65.22
21988;BME280;11158;53.404;-1.510;2023-07-31T02:43:35;99152.00;;;20.62;65.22
21988;BME280;11158;53.404;-1.510;2023-07-31T02:46:20;99139.69;;;20.75;65.03
21988;BME280;11158;53.404;-1.510;2023-07-31T02:49:04;99138.78;;;20.90;64.21
21988;BME280;11158;53.404;-1.510;2023-07-31T02:51:48;99140.47;;;20.81;64.60
21988;BME280;11158;53.404;-1.510;2023-07-31T02:54:32;99143.25;;;20.70;64.30
21988;BME280;11158;53.404;-1.510;2023-07-31T02:57:16;99136.44;;;21.12;63.38
21988;BME280;11158;53.404;-1.510;2023-07-31T03:00:00;99129.53;;;21.25;62.77
21988;BME280;11158;53.404;-1.510;2023-07-31T03:02:44;99141.38;;;21.40;62.73
21988;BME280;11158;53.404;-1.510;2023-07-31T03:05:28;99130.84;;;21.33;63.00
21988;BME280;11158;53.404;-1.510;2023-07-31T03:08:12;99123.16;;;21.69;61.56
21988;BME280;11158;53.404;-1.510;2023-07-31T03:10:56;99124.28;;;21.87;61.26
21988;BME280;11158;53.404;-1.510;2023-07-31T03:13:40;99127.81;;;21.34;62.73
21988;BME280;11158;53.404;-1.510;2023-07-31T03:16:25;99132.56;;;21.19;63.04
21988;BME280;11158;53.404;-1.510;2023-07-31T03:19:08;99126.84;;;21.20;63.48
21988;BME280;11158;53.404;-1.510;2023-07-31T03:21:52;99115.25;;;21.09;63.64
21988;BME280;11158;53.404;-1.510;2023-07-31T03:24:36;99123.63;;;20.84;64.54
21988;BME280;11158;53.404;-1.510;2023-07-31T03:27:20;99120.78;;;20.99;64.14
21988;BME280;11158;53.404;-1.510;2023-07-31T03:30:05;99119.78;;;20.90;64.31
21988;BME280;11158;53.404;-1.510;2023-07-31T03:32:50;99123.41;;;20.75;64.34
21988;BME280;11158;53.404;-1.510;2023-07-31T03:35:34;99124.09;;;20.91;64.16
21988;BME280;11158;53.404;-1.510;2023-07-31T03:38:18;99117.28;;;20.59;64.86
21988;BME280;11158;53.404;-1.510;2023-07-31T03:41:03;99108.63;;;20.57;65.23
21988;BME280;11158;53.404;-1.510;2023-07-31T03:43:49;99113.81;;;20.88;64.70
21988;BME280;11158;53.404;-1.510;2023-07-31T03:46:35;99118.09;;;20.60;64.88
21988;BME280;11158;53.404;-1.510;2023-07-31T03:49:19;99115.38;;;20.60;65.53
21988;BME280;11158;53.404;-1.510;2023-07-31T03:52:04;99120.38;;;20.82;64.75
21988;BME280;11158;53.404;-1.510;2023-07-31T03:54:48;99120.84;;;21.23;63.40
21988;BME280;11158;53.404;-1.510;2023-07-31T03:57:32;99121.03;;;21.32;63.23
21988;BME280;11158;53.404;-1.510;2023-07-31T04:00:16;99117.53;;;21.31;63.46
21988;BME280;11158;53.404;-1.510;2023-07-31T04:03:01;99111.84;;;21.28;63.05
21988;BME280;11158;53.404;-1.510;2023-07-31T04:05:45;99113.41;;;21.05;64.11
21988;BME280;11158;53.404;-1.510;2023-07-31T04:08:29;99106.94;;;20.61;65.04
21988;BME280;11158;53.404;-1.510;2023-07-31T04:11:13;99102.63;;;20.55;65.34
21988;BME280;11158;53.404;-1.510;2023-07-31T04:13:57;99094.75;;;20.59;64.78
21988;BME280;11158;53.404;-1.510;2023-07-31T04:16:41;99098.59;;;20.47;65.39
21988;BME280;11158;53.404;-1.510;2023-07-31T04:19:25;99096.88;;;20.67;64.74
21988;BME280;11158;53.404;-1.510;2023-07-31T04:22:09;99084.69;;;20.54;64.92
21988;BME280;11158;53.404;-1.510;2023-07-31T04:24:54;99083.66;;;20.45;65.21
21988;BME280;11158;53.404;-1.510;2023-07-31T04:27:38;99083.56;;;20.21;65.72
21988;BME280;11158;53.404;-1.510;2023-07-31T04:30:24;99086.47;;;20.35;65.47
21988;BME280;11158;53.404;-1.510;2023-07-31T04:33:08;99084.66;;;20.15;66.02
21988;BME280;11158;53.404;-1.510;2023-07-31T04:35:53;99091.84;;;20.40;64.86
21988;BME280;11158;53.404;-1.510;2023-07-31T04:38:38;99089.31;;;20.59;64.29
21988;BME280;11158;53.404;-1.510;2023-07-31T04:41:22;99093.53;;;20.30;65.13
21988;BME280;11158;53.404;-1.510;2023-07-31T04:44:06;99094.28;;;19.86;66.18
21988;BME280;11158;53.404;-1.510;2023-07-31T04:46:50;99097.00;;;19.86;66.40
21988;BME280;11158;53.404;-1.510;2023-07-31T04:49:34;99095.19;;;20.26;65.80
21988;BME280;11158;53.404;-1.510;2023-07-31T04:52:18;99095.94;;;20.37;65.07
21988;BME280;11158;53.404;-1.510;2023-07-31T04:55:03;99102.75;;;20.35;64.77
21988;BME280;11158;53.404;-1.510;2023-07-31T04:57:47;99103.72;;;19.99;66.03
21988;BME280;11158;53.404;-1.510;2023-07-31T05:00:32;99100.06;;;20.24;65.23
21988;BME280;11158;53.404;-1.510;2023-07-31T05:03:16;99094.47;;;20.55;64.28
21988;BME280;11158;53.404;-1.510;2023-07-31T05:06:00;99107.28;;;20.89;63.35
21988;BME280;11158;53.404;-1.510;2023-07-31T05:08:44;99098.09;;;20.85;63.46
21988;BME280;11158;53.404;-1.510;2023-07-31T05:11:28;99094.38;;;20.70;63.89
21988;BME280;11158;53.404;-1.510;2023-07-31T05:14:12;99111.63;;;20.90;63.65
21988;BME280;11158;53.404;-1.510;2023-07-31T05:16:56;99113.13;;;20.17;65.65
21988;BME280;11158;53.404;-1.510;2023-07-31T05:19:41;99123.06;;;20.87;63.79
21988;BME280;11158;53.404;-1.510;2023-07-31T05:22:25;99115.66;;;21.27;62.43
21988;BME280;11158;53.404;-1.510;2023-07-31T05:25:09;99116.59;;;21.46;61.47
21988;BME280;11158;53.404;-1.510;2023-07-31T05:27:54;99124.34;;;21.29;62.18
21988;BME280;11158;53.404;-1.510;2023-07-31T05:30:37;99114.03;;;21.60;61.29
21988;BME280;11158;53.404;-1.510;2023-07-31T05:33:22;99127.31;;;21.62;61.18
21988;BME280;11158;53.404;-1.510;2023-07-31T05:36:06;99123.44;;;21.92;60.88
21988;BME280;11158;53.404;-1.510;2023-07-31T05:38:50;99123.59;;;22.01;60.43
21988;BME280;11158;53.404;-1.510;2023-07-31T05:41:35;99124.94;;;21.79;60.51
21988;BME280;11158;53.404;-1.510;2023-07-31T05:44:19;99126.69;;;21.70;61.23
21988;BME280;11158;53.404;-1.510;2023-07-31T05:47:04;99120.69;;;21.09;62.37
21988;BME280;11158;53.404;-1.510;2023-07-31T05:49:49;99123.47;;;21.33;62.26
21988;BME280;11158;53.404;-1.510;2023-07-31T05:52:36;99112.59;;;21.04;62.93
21988;BME280;11158;53.404;-1.510;2023-07-31T05:55:20;99111.19;;;21.41;61.81
21988;BME280;11158;53.404;-1.510;2023-07-31T05:58:05;99123.03;;;21.80;60.38
21988;BME280;11158;53.404;-1.510;2023-07-31T06:00:49;99117.72;;;21.69;60.80
21988;BME280;11158;53.404;-1.510;2023-07-31T06:03:33;99118.06;;;21.63;61.16
21988;BME280;11158;53.404;-1.510;2023-07-31T06:06:17;99106.72;;;21.56;61.29
21988;BME280;11158;53.404;-1.510;2023-07-31T06:09:01;99103.56;;;21.43;61.87
21988;BME280;11158;53.404;-1.510;2023-07-31T06:11:47;99099.38;;;21.80;60.42
21988;BME280;11158;53.404;-1.510;2023-07-31T06:14:31;99088.66;;;22.70;58.48
21988;BME280;11158;53.404;-1.510;2023-07-31T06:17:15;99086.44;;;22.91;57.48
21988;BME280;11158;53.404;-1.510;2023-07-31T06:20:00;99075.81;;;23.08;56.59
21988;BME280;11158;53.404;-1.510;2023-07-31T06:22:44;99074.44;;;23.52;55.97
21988;BME280;11158;53.404;-1.510;2023-07-31T06:25:28;99083.53;;;23.48;55.34
21988;BME280;11158;53.404;-1.510;2023-07-31T06:28:12;99076.38;;;23.66;54.96
21988;BME280;11158;53.404;-1.510;2023-07-31T06:30:56;99070.38;;;22.89;55.84
21988;BME280;11158;53.404;-1.510;2023-07-31T06:33:41;99084.13;;;22.27;58.46
21988;BME280;11158;53.404;-1.510;2023-07-31T06:36:25;99080.16;;;22.14;58.45
21988;BME280;11158;53.404;-1.510;2023-07-31T06:39:09;99078.06;;;22.68;57.04
21988;BME280;11158;53.404;-1.510;2023-07-31T06:41:53;99078.31;;;22.34;58.59
21988;BME280;11158;53.404;-1.510;2023-07-31T06:44:37;99084.63;;;22.05;58.83
21988;BME280;11158;53.404;-1.510;2023-07-31T06:47:21;99081.44;;;21.79;59.99
21988;BME280;11158;53.404;-1.510;2023-07-31T06:50:05;99080.22;;;21.90;59.98
21988;BME280;11158;53.404;-1.510;2023-07-31T06:52:50;99082.38;;;21.69;60.32
21988;BME280;11158;53.404;-1.510;2023-07-31T06:55:34;99080.97;;;22.15;59.23
21988;BME280;11158;53.404;-1.510;2023-07-31T06:58:18;99097.53;;;22.18;59.01
21988;BME280;11158;53.404;-1.510;2023-07-31T07:01:02;99090.56;;;21.88;59.35
21988;BME280;11158;53.404;-1.510;2023-07-31T07:03:47;99102.63;;;22.01;58.97
21988;BME280;11158;53.404;-1.510;2023-07-31T07:06:31;99102.81;;;22.10;59.02
21988;BME280;11158;53.404;-1.510;2023-07-31T07:09:15;99092.41;;;21.69;59.91
21988;BME280;11158;53.404;-1.510;2023-07-31T07:11:59;99096.72;;;21.75;59.70
21988;BME280;11158;53.404;-1.510;2023-07-31T07:14:43;99098.47;;;21.90;59.53
21988;BME280;11158;53.404;-1.510;2023-07-31T07:17:28;99085.56;;;21.77;59.04
21988;BME280;11158;53.404;-1.510;2023-07-31T07:20:15;99102.00;;;22.33;58.00
21988;BME280;11158;53.404;-1.510;2023-07-31T07:22:59;99092.28;;;22.27;57.42
21988;BME280;11158;53.404;-1.510;2023-07-31T07:25:44;99095.09;;;21.74;59.56
21988;BME280;11158;53.404;-1.510;2023-07-31T07:28:29;99089.66;;;22.17;58.42
21988;BME280;11158;53.404;-1.510;2023-07-31T07:31:13;99076.28;;;21.78;59.42
21988;BME280;11158;53.404;-1.510;2023-07-31T07:33:57;99068.81;;;21.64;58.75
21988;BME280;11158;53.404;-1.510;2023-07-31T07:36:41;99067.88;;;22.17;58.25
21988;BME280;11158;53.404;-1.510;2023-07-31T07:39:25;99060.19;;;22.62;57.18
21988;BME280;11158;53.404;-1.510;2023-07-31T07:42:09;99059.94;;;22.02;57.69
21988;BME280;11158;53.404;-1.510;2023-07-31T07:44:54;99047.78;;;21.51;58.37
21988;BME280;11158;53.404;-1.510;2023-07-31T07:47:40;99051.97;;;22.29;57.15
21988;BME280;11158;53.404;-1.510;2023-07-31T07:50:25;99068.75;;;22.12;57.01
21988;BME280;11158;53.404;-1.510;2023-07-31T07:53:09;99068.00;;;22.50;55.75
21988;BME280;11158;53.404;-1.510;2023-07-31T07:55:53;99069.63;;;22.08;56.41
21988;BME280;11158;53.404;-1.510;2023-07-31T07:58:38;99057.78;;;22.42;55.71
21988;BME280;11158;53.404;-1.510;2023-07-31T08:01:22;99041.28;;;22.33;55.70
21988;BME280;11158;53.404;-1.510;2023-07-31T08:04:06;99052.22;;;21.66;56.89
21988;BME280;11158;53.404;-1.510;2023-07-31T08:06:50;99053.44;;;22.41;55.70
21988;BME280;11158;53.404;-1.510;2023-07-31T08:09:34;99061.38;;;22.37;55.15
21988;BME280;11158;53.404;-1.510;2023-07-31T08:12:17;99069.06;;;22.87;54.19
21988;BME280;11158;53.404;-1.510;2023-07-31T08:15:02;99075.91;;;22.08;55.25
21988;BME280;11158;53.404;-1.510;2023-07-31T08:17:46;99064.25;;;22.27;55.44
21988;BME280;11158;53.404;-1.510;2023-07-31T08:20:30;99065.34;;;21.83;56.61
21988;BME280;11158;53.404;-1.510;2023-07-31T08:23:14;99066.00;;;21.74;56.98
21988;BME280;11158;53.404;-1.510;2023-07-31T08:25:59;99060.16;;;22.05;55.47
21988;BME280;11158;53.404;-1.510;2023-07-31T08:28:43;99049.16;;;22.15;55.74
21988;BME280;11158;53.404;-1.510;2023-07-31T08:31:27;99048.38;;;21.67;56.59
21988;BME280;11158;53.404;-1.510;2023-07-31T08:34:14;99039.34;;;22.14;55.36
21988;BME280;11158;53.404;-1.510;2023-07-31T08:36:58;99045.47;;;21.63;56.93
21988;BME280;11158;53.404;-1.510;2023-07-31T08:39:42;99039.41;;;21.90;55.46
21988;BME280;11158;53.404;-1.510;2023-07-31T08:42:26;99054.13;;;21.65;56.79
21988;BME280;11158;53.404;-1.510;2023-07-31T08:45:14;99053.31;;;22.08;55.73
21988;BME280;11158;53.404;-1.510;2023-07-31T08:47:59;99053.72;;;22.39;54.89
21988;BME280;11158;53.404;-1.510;2023-07-31T08:50:43;99058.41;;;22.14;55.42
21988;BME280;11158;53.404;-1.510;2023-07-31T08:53:27;99049.91;;;21.54;57.21
21988;BME280;11158;53.404;-1.510;2023-07-31T08:56:12;99061.03;;;22.01;55.76
21988;BME280;11158;53.404;-1.510;2023-07-31T08:58:58;99054.88;;;21.95;56.25
21988;BME280;11158;53.404;-1.510;2023-07-31T09:01:49;99061.69;;;21.92;55.68
21988;BME280;11158;53.404;-1.510;2023-07-31T09:04:34;99057.19;;;22.64;54.64
21988;BME280;11158;53.404;-1.510;2023-07-31T09:07:19;99052.13;;;22.38;54.72
21988;BME280;11158;53.404;-1.510;2023-07-31T09:10:04;99051.59;;;22.36;54.61
21988;BME280;11158;53.404;-1.510;2023-07-31T09:12:50;99047.25;;;22.35;54.78
21988;BME280;11158;53.404;-1.510;2023-07-31T09:15:35;99037.31;;;22.63;54.31
21988;BME280;11158;53.404;-1.510;2023-07-31T09:18:20;99028.19;;;22.16;55.25
21988;BME280;11158;53.404;-1.510;2023-07-31T09:21:06;99031.78;;;22.68;54.18
21988;BME280;11158;53.404;-1.510;2023-07-31T09:23:51;99036.03;;;23.07;53.27
21988;BME280;11158;53.404;-1.510;2023-07-31T09:26:37;99026.84;;;23.03;52.78
21988;BME280;11158;53.404;-1.510;2023-07-31T09:29:22;99027.16;;;22.12;54.48
21988;BME280;11158;53.404;-1.510;2023-07-31T09:32:15;99037.41;;;22.39;54.83
21988;BME280;11158;53.404;-1.510;2023-07-31T09:35:00;99037.69;;;22.37;54.41
21988;BME280;11158;53.404;-1.510;2023-07-31T09:37:43;99048.44;;;22.29;55.19
21988;BME280;11158;53.404;-1.510;2023-07-31T09:40:29;99048.81;;;22.22;54.94
21988;BME280;11158;53.404;-1.510;2023-07-31T09:43:21;99030.16;;;22.10;55.04
21988;BME280;11158;53.404;-1.510;2023-07-31T09:46:13;99020.69;;;22.46;53.89
21988;BME280;11158;53.404;-1.510;2023-07-31T09:52:02;99041.34;;;22.09;55.12
21988;BME280;11158;53.404;-1.510;2023-07-31T09:54:55;99048.22;;;22.01;55.37
21988;BME280;11158;53.404;-1.510;2023-07-31T09:57:45;99049.06;;;22.02;54.97
21988;BME280;11158;53.404;-1.510;2023-07-31T10:00:30;99043.44;;;21.74;55.93
21988;BME280;11158;53.404;-1.510;2023-07-31T10:03:15;99039.59;;;22.18;55.02
21988;BME280;11158;53.404;-1.510;2023-07-31T10:06:00;99024.84;;;22.24;54.50
21988;BME280;11158;53.404;-1.510;2023-07-31T10:08:47;99033.72;;;22.30;54.08
21988;BME280;11158;53.404;-1.510;2023-07-31T10:11:53;99029.22;;;22.20;54.34
21988;BME280;11158;53.404;-1.510;2023-07-31T10:14:41;99030.94;;;21.92;55.06
21988;BME280;11158;53.404;-1.510;2023-07-31T10:17:26;99038.81;;;21.50;56.81
21988;BME280;11158;53.404;-1.510;2023-07-31T10:20:10;99047.69;;;20.74;59.01
21988;BME280;11158;53.404;-1.510;2023-07-31T10:22:56;99042.09;;;20.89;58.24
21988;BME280;11158;53.404;-1.510;2023-07-31T10:25:41;99043.22;;;21.46;56.82
21988;BME280;11158;53.404;-1.510;2023-07-31T10:28:26;99051.38;;;21.17;57.41
21988;BME280;11158;53.404;-1.510;2023-07-31T10:31:10;99042.56;;;21.01;58.44
21988;BME280;11158;53.404;-1.510;2023-07-31T10:33:58;99044.25;;;20.92;58.75
21988;BME280;11158;53.404;-1.510;2023-07-31T10:36:44;99039.78;;;21.60;56.80
21988;BME280;11158;53.404;-1.510;2023-07-31T10:39:36;99022.03;;;22.29;55.04
21988;BME280;11158;53.404;-1.510;2023-07-31T10:42:28;99028.22;;;21.92;55.22
21988;BME280;11158;53.404;-1.510;2023-07-31T10:45:24;99020.91;;;21.92;55.34
21988;BME280;11158;53.404;-1.510;2023-07-31T10:48:14;99010.75;;;21.98;55.12
21988;BME280;11158;53.404;-1.510;2023-07-31T10:50:59;99009.00;;;22.26;54.77
21988;BME280;11158;53.404;-1.510;2023-07-31T10:53:43;99014.22;;;21.61;55.68
21988;BME280;11158;53.404;-1.510;2023-07-31T10:56:37;99006.09;;;21.99;54.51
21988;BME280;11158;53.404;-1.510;2023-07-31T10:59:26;99009.84;;;22.27;53.85
21988;BME280;11158;53.404;-1.510;2023-07-31T11:02:24;99029.06;;;21.92;54.25
21988;BME280;11158;53.404;-1.510;2023-07-31T11:05:14;99010.38;;;22.05;54.70
21988;BME280;11158;53.404;-1.510;2023-07-31T11:07:58;99001.78;;;21.98;55.07
21988;BME280;11158;53.404;-1.510;2023-07-31T11:10:43;99007.75;;;22.00;54.71
21988;BME280;11158;53.404;-1.510;2023-07-31T11:13:47;99006.41;;;21.54;56.21
21988;BME280;11158;53.404;-1.510;2023-07-31T11:16:34;99003.13;;;21.28;56.90
21988;BME280;11158;53.404;-1.510;2023-07-31T11:19:23;99013.88;;;21.14;56.80
21988;BME280;11158;53.404;-1.510;2023-07-31T11:22:07;99026.97;;;21.12;57.02
21988;BME280;11158;53.404;-1.510;2023-07-31T11:24:52;99031.81;;;21.44;55.97
21988;BME280;11158;53.404;-1.510;2023-07-31T11:27:39;99026.59;;;21.19;55.89
21988;BME280;11158;53.404;-1.510;2023-07-31T11:30:24;99035.84;;;21.71;55.35
21988;BME280;11158;53.404;-1.510;2023-07-31T11:33:11;99034.16;;;21.27;56.20
21988;BME280;11158;53.404;-1.510;2023-07-31T11:35:56;99028.53;;;20.89;57.65
21988;BME280;11158;53.404;-1.510;2023-07-31T11:38:40;99011.75;;;20.47;58.14
21988;BME280;11158;53.404;-1.510;2023-07-31T11:41:24;99031.78;;;20.51;58.38
21988;BME280;11158;53.404;-1.510;2023-07-31T11:44:08;99032.28;;;20.93;57.67
21988;BME280;11158;53.404;-1.510;2023-07-31T11:46:56;99031.50;;;21.46;56.04
21988;BME280;11158;53.404;-1.510;2023-07-31T11:49:41;99032.56;;;21.74;55.78
21988;BME280;11158;53.404;-1.510;2023-07-31T11:52:25;99045.34;;;21.20;57.20
21988;BME280;11158;53.404;-1.510;2023-07-31T11:55:09;99036.16;;;21.45;56.75
21988;BME280;11158;53.404;-1.510;2023-07-31T11:57:57;99025.94;;;21.32;57.50
21988;BME280;11158;53.404;-1.510;2023-07-31T12:00:41;99017.59;;;21.71;56.41
21988;BME280;11158;53.404;-1.510;2023-07-31T12:03:26;99004.94;;;22.05;55.81
21988;BME280;11158;53.404;-1.510;2023-07-31T12:06:10;99008.13;;;21.21;58.15
21988;BME280;11158;53.404;-1.510;2023-07-31T12:09:01;99012.34;;;21.08;58.34
21988;BME280;11158;53.404;-1.510;2023-07-31T12:11:47;99000.59;;;21.37;58.19
21988;BME280;11158;53.404;-1.510;2023-07-31T12:14:31;98999.09;;;21.73;56.71
21988;BME280;11158;53.404;-1.510;2023-07-31T12:17:15;98989.34;;;21.48;56.90
21988;BME280;11158;53.404;-1.510;2023-07-31T12:19:59;98970.16;;;22.21;55.46
21988;BME280;11158;53.404;-1.510;2023-07-31T12:22:43;98983.91;;;21.72;55.93
21988;BME280;11158;53.404;-1.510;2023-07-31T12:25:33;98972.59;;;22.41;54.60
21988;BME280;11158;53.404;-1.510;2023-07-31T12:28:22;98979.34;;;21.87;55.18
21988;BME280;11158;53.404;-1.510;2023-07-31T12:31:08;99006.88;;;21.61;56.36
21988;BME280;11158;53.404;-1.510;2023-07-31T12:33:53;99000.97;;;22.16;54.60
21988;BME280;11158;53.404;-1.510;2023-07-31T12:36:37;98987.22;;;21.45;56.52
21988;BME280;11158;53.404;-1.510;2023-07-31T12:39:23;98984.22;;;21.47;56.57
21988;BME280;11158;53.404;-1.510;2023-07-31T12:42:07;98984.59;;;20.82;58.09
21988;BME280;11158;53.404;-1.510;2023-07-31T12:44:52;98977.75;;;21.13;56.87
21988;BME280;11158;53.404;-1.510;2023-07-31T12:47:36;98991.03;;;20.62;57.72
21988;BME280;11158;53.404;-1.510;2023-07-31T12:50:21;98997.66;;;20.80;58.18
21988;BME280;11158;53.404;-1.510;2023-07-31T12:53:05;98988.66;;;20.50;57.96
21988;BME280;11158;53.404;-1.510;2023-07-31T12:55:50;98999.84;;;19.99;59.63
21988;BME280;11158;53.404;-1.510;2023-07-31T12:58:34;99012.41;;;20.34;58.00
21988;BME280;11158;53.404;-1.510;2023-07-31T13:01:18;99010.22;;;20.31;58.06
21988;BME280;11158;53.404;-1.510;2023-07-31T13:04:03;99005.66;;;20.95;56.38
21988;BME280;11158;53.404;-1.510;2023-07-31T13:06:46;98994.97;;;20.40;58.11
21988;BME280;11158;53.404;-1.510;2023-07-31T13:09:31;98985.06;;;20.55;57.77
21988;BME280;11158;53.404;-1.510;2023-07-31T13:12:15;98972.72;;;20.78;57.53
21988;BME280;11158;53.404;-1.510;2023-07-31T13:14:59;98955.06;;;20.75;56.18
21988;BME280;11158;53.404;-1.510;2023-07-31T13:17:45;98955.91;;;20.76;56.42
21988;BME280;11158;53.404;-1.510;2023-07-31T13:20:30;98952.06;;;20.77;56.36
21988;BME280;11158;53.404;-1.510;2023-07-31T13:23:13;98952.28;;;20.17;58.11
21988;BME280;11158;53.404;-1.510;2023-07-31T13:25:58;98961.28;;;20.46;57.63
21988;BME280;11158;53.404;-1.510;2023-07-31T13:28:42;98959.56;;;21.38;55.41
21988;BME280;11158;53.404;-1.510;2023-07-31T13:31:27;98958.88;;;21.03;55.98
21988;BME280;11158;53.404;-1.510;2023-07-31T13:34:11;98958.41;;;20.33;57.34
21988;BME280;11158;53.404;-1.510;2023-07-31T13:36:56;98961.94;;;20.67;56.46
21988;BME280;11158;53.404;-1.510;2023-07-31T13:39:40;98957.81;;;20.99;56.27
21988;BME280;11158;53.404;-1.510;2023-07-31T13:42:25;98946.50;;;20.92;56.29
21988;BME280;11158;53.404;-1.510;2023-07-31T13:45:09;98961.00;;;20.48;57.79
21988;BME280;11158;53.404;-1.510;2023-07-31T13:47:54;98951.84;;;20.39;57.88
21988;BME280;11158;53.404;-1.510;2023-07-31T13:50:39;98950.28;;;20.67;57.11
21988;BME280;11158;53.404;-1.510;2023-07-31T13:53:23;98957.69;;;20.85;57.12
21988;BME280;11158;53.404;-1.510;2023-07-31T13:56:10;98951.41;;;20.61;57.22
21988;BME280;11158;53.404;-1.510;2023-07-31T13:58:54;98949.81;;;20.84;56.80
21988;BME280;11158;53.404;-1.510;2023-07-31T14:01:38;98949.94;;;21.03;56.68
21988;BME280;11158;53.404;-1.510;2023-07-31T14:04:22;98946.19;;;20.93;57.20
21988;BME280;11158;53.404;-1.510;2023-07-31T14:07:06;98941.88;;;20.92;56.92
21988;BME280;11158;53.404;-1.510;2023-07-31T14:09:54;98938.38;;;21.59;55.65
21988;BME280;11158;53.404;-1.510;2023-07-31T14:12:39;98937.94;;;21.28;55.10
21988;BME280;11158;53.404;-1.510;2023-07-31T14:15:23;98944.84;;;21.39;55.08
21988;BME280;11158;53.404;-1.510;2023-07-31T14:18:07;98944.94;;;21.34;55.05
21988;BME280;11158;53.404;-1.510;2023-07-31T14:20:51;98941.47;;;21.52;53.82
21988;BME280;11158;53.404;-1.510;2023-07-31T14:23:36;98942.16;;;21.82;53.46
21988;BME280;11158;53.404;-1.510;2023-07-31T14:26:20;98930.34;;;22.44;52.52
21988;BME280;11158;53.404;-1.510;2023-07-31T14:29:04;98925.19;;;21.28;54.08
21988;BME280;11158;53.404;-1.510;2023-07-31T14:31:48;98916.19;;;21.71;53.87